sensor_id;sensor_type;location;lat;lon;timestamp;pressure;altitude;pressure_sealevel;temperature
70969;BMP280;58630;43.022;25.100;2022-12-13T00:01:13;98974.38;;;9.55
70969;BMP280;58630;43.022;25.100;2022-12-13T00:03:38;98980.59;;;9.54
70969;BMP280;58630;43.022;25.100;2022-12-13T00:06:05;98973.84;;;9.53
70969;BMP280;58630;43.022;25.100;2022-12-13T00:08:30;98967.91;;;9.53
70969;BMP280;58630;43.022;25.100;2022-12-13T00:10:59;98986.03;;;9.53
70969;BMP280;58630;43.022;25.100;2022-12-13T00:13:25;98982.41;;;9.54
70969;BMP280;58630;43.022;25.100;2022-12-13T00:15:57;98986.03;;;9.53
70969;BMP280;58630;43.022;25.100;2022-12-13T00:18:22;98986.28;;;9.51
70969;BMP280;58630;43.022;25.100;2022-12-13T00:20:47;98993.03;;;9.52
70969;BMP280;58630;43.022;25.100;2022-12-13T00:23:13;98992.25;;;9.52
70969;BMP280;58630;43.022;25.100;2022-12-13T00:25:38;98980.84;;;9.53
70969;BMP280;58630;43.022;25.100;2022-12-13T00:28:03;98979.28;;;9.52
70969;BMP280;58630;43.022;25.100;2022-12-13T00:30:29;98980.31;;;9.51
70969;BMP280;58630;43.022;25.100;2022-12-13T00:32:57;98975.38;;;9.49
70969;BMP280;58630;43.022;25.100;2022-12-13T00:35:22;98976.94;;;9.50
70969;BMP280;58630;43.022;25.100;2022-12-13T00:37:47;98983.94;;;9.50
70969;BMP280;58630;43.022;25.100;2022-12-13T00:40:12;98979.78;;;9.49
70969;BMP280;58630;43.022;25.100;2022-12-13T00:42:38;98976.41;;;9.48
70969;BMP280;58630;43.022;25.100;2022-12-13T00:45:03;98979.00;;;9.48
70969;BMP280;58630;43.022;25.100;2022-12-13T00:47:29;98981.88;;;9.47
70969;BMP280;58630;43.022;25.100;2022-12-13T00:49:54;98977.72;;;9.46
70969;BMP280;58630;43.022;25.100;2022-12-13T00:52:19;98983.69;;;9.46
70969;BMP280;58630;43.022;25.100;2022-12-13T00:54:45;98979.53;;;9.45
70969;BMP280;58630;43.022;25.100;2022-12-13T00:57:10;98986.53;;;9.45
70969;BMP280;58630;43.022;25.100;2022-12-13T00:59:35;98995.34;;;9.44
70969;BMP280;58630;43.022;25.100;2022-12-13T01:02:01;98985.75;;;9.44
70969;BMP280;58630;43.022;25.100;2022-12-13T01:04:26;98989.38;;;9.43
70969;BMP280;58630;43.022;25.100;2022-12-13T01:06:51;98995.34;;;9.44
70969;BMP280;58630;43.022;25.100;2022-12-13T01:09:19;98998.19;;;9.42
70969;BMP280;58630;43.022;25.100;2022-12-13T01:11:45;99001.81;;;9.41
70969;BMP280;58630;43.022;25.100;2022-12-13T01:14:11;98988.31;;;9.39
70969;BMP280;58630;43.022;25.100;2022-12-13T01:16:36;98990.13;;;9.39
70969;BMP280;58630;43.022;25.100;2022-12-13T01:19:02;98985.25;;;9.37
70969;BMP280;58630;43.022;25.100;2022-12-13T01:21:27;98994.78;;;9.32
70969;BMP280;58630;43.022;25.100;2022-12-13T01:23:53;98992.50;;;9.35
70969;BMP280;58630;43.022;25.100;2022-12-13T01:26:20;98990.41;;;9.32
70969;BMP280;58630;43.022;25.100;2022-12-13T01:28:47;98994.53;;;9.28
70969;BMP280;58630;43.022;25.100;2022-12-13T01:31:14;98990.13;;;9.29
70969;BMP280;58630;43.022;25.100;2022-12-13T01:33:39;98989.38;;;9.28
70969;BMP280;58630;43.022;25.100;2022-12-13T01:36:06;98995.31;;;9.29
70969;BMP280;58630;43.022;25.100;2022-12-13T01:38:31;98993.00;;;9.27
70969;BMP280;58630;43.022;25.100;2022-12-13T01:40:57;99003.34;;;9.27
70969;BMP280;58630;43.022;25.100;2022-12-13T01:43:48;99011.91;;;9.28
70969;BMP280;58630;43.022;25.100;2022-12-13T01:46:14;99010.34;;;9.27
70969;BMP280;58630;43.022;25.100;2022-12-13T01:48:47;99007.22;;;9.25
70969;BMP280;58630;43.022;25.100;2022-12-13T01:51:14;99011.38;;;9.26
70969;BMP280;58630;43.022;25.100;2022-12-13T01:53:40;99005.66;;;9.24
70969;BMP280;58630;43.022;25.100;2022-12-13T01:56:09;99009.31;;;9.23
70969;BMP280;58630;43.022;25.100;2022-12-13T01:58:35;99017.84;;;9.23
70969;BMP280;58630;43.022;25.100;2022-12-13T02:01:00;99010.34;;;9.22
70969;BMP280;58630;43.022;25.100;2022-12-13T02:03:26;99016.53;;;9.21
70969;BMP280;58630;43.022;25.100;2022-12-13T02:06:09;99020.94;;;9.20
70969;BMP280;58630;43.022;25.100;2022-12-13T02:08:35;99018.63;;;9.19
70969;BMP280;58630;43.022;25.100;2022-12-13T02:11:01;99022.25;;;9.18
70969;BMP280;58630;43.022;25.100;2022-12-13T02:13:27;99020.69;;;9.17
70969;BMP280;58630;43.022;25.100;2022-12-13T02:18:34;99034.91;;;9.14
70969;BMP280;58630;43.022;25.100;2022-12-13T02:21:05;99028.97;;;9.14
70969;BMP280;58630;43.022;25.100;2022-12-13T02:26:26;99033.59;;;9.12
70969;BMP280;58630;43.022;25.100;2022-12-13T02:31:26;99037.25;;;9.11
70969;BMP280;58630;43.022;25.100;2022-12-13T02:41:35;99042.41;;;9.06
70969;BMP280;58630;43.022;25.100;2022-12-13T02:46:40;99035.91;;;9.03
70969;BMP280;58630;43.022;25.100;2022-12-13T02:49:07;99040.31;;;9.03
70969;BMP280;58630;43.022;25.100;2022-12-13T02:51:33;99044.72;;;9.02
70969;BMP280;58630;43.022;25.100;2022-12-13T02:54:00;99044.16;;;8.95
70969;BMP280;58630;43.022;25.100;2022-12-13T02:56:25;99040.28;;;8.98
70969;BMP280;58630;43.022;25.100;2022-12-13T02:58:51;99042.34;;;8.96
70969;BMP280;58630;43.022;25.100;2022-12-13T03:09:00;99044.41;;;8.94
70969;BMP280;58630;43.022;25.100;2022-12-13T03:11:35;99052.47;;;8.93
70969;BMP280;58630;43.022;25.100;2022-12-13T03:14:20;99060.72;;;8.90
70969;BMP280;58630;43.022;25.100;2022-12-13T03:16:46;99065.34;;;8.83
70969;BMP280;58630;43.022;25.100;2022-12-13T03:19:12;99067.16;;;8.82
70969;BMP280;58630;43.022;25.100;2022-12-13T03:21:39;99064.56;;;8.82
70969;BMP280;58630;43.022;25.100;2022-12-13T03:24:05;99061.72;;;8.84
70969;BMP280;58630;43.022;25.100;2022-12-13T03:26:30;99072.09;;;8.84
70969;BMP280;58630;43.022;25.100;2022-12-13T03:28:55;99068.44;;;8.85
70969;BMP280;58630;43.022;25.100;2022-12-13T03:31:21;99061.44;;;8.80
70969;BMP280;58630;43.022;25.100;2022-12-13T03:33:46;99066.63;;;8.80
70969;BMP280;58630;43.022;25.100;2022-12-13T03:36:11;99070.00;;;8.81
70969;BMP280;58630;43.022;25.100;2022-12-13T03:38:37;99071.81;;;8.80
70969;BMP280;58630;43.022;25.100;2022-12-13T03:41:05;99085.78;;;8.79
70969;BMP280;58630;43.022;25.100;2022-12-13T03:43:31;99076.44;;;8.73
70969;BMP280;58630;43.022;25.100;2022-12-13T03:45:56;99080.56;;;8.74
70969;BMP280;58630;43.022;25.100;2022-12-13T03:48:22;99097.16;;;8.73
70969;BMP280;58630;43.022;25.100;2022-12-13T03:50:47;99097.66;;;8.75
70969;BMP280;58630;43.022;25.100;2022-12-13T03:53:13;99102.84;;;8.75
70969;BMP280;58630;43.022;25.100;2022-12-13T03:55:38;99088.06;;;8.76
70969;BMP280;58630;43.022;25.100;2022-12-13T03:58:03;99087.59;;;8.74
70969;BMP280;58630;43.022;25.100;2022-12-13T04:00:29;99092.47;;;8.70
70969;BMP280;58630;43.022;25.100;2022-12-13T04:02:54;99092.47;;;8.70
70969;BMP280;58630;43.022;25.100;2022-12-13T04:05:19;99090.41;;;8.72
70969;BMP280;58630;43.022;25.100;2022-12-13T04:07:45;99084.94;;;8.69
70969;BMP280;58630;43.022;25.100;2022-12-13T04:10:10;99083.13;;;8.69
70969;BMP280;58630;43.022;25.100;2022-12-13T04:12:35;99090.91;;;8.69
70969;BMP280;58630;43.022;25.100;2022-12-13T04:15:19;99101.25;;;8.69
70969;BMP280;58630;43.022;25.100;2022-12-13T04:17:44;99105.34;;;8.65
70969;BMP280;58630;43.022;25.100;2022-12-13T04:20:10;99115.72;;;8.65
70969;BMP280;58630;43.022;25.100;2022-12-13T04:22:35;99100.69;;;8.62
70969;BMP280;58630;43.022;25.100;2022-12-13T04:25:01;99096.31;;;8.63
70969;BMP280;58630;43.022;25.100;2022-12-13T04:27:26;99104.06;;;8.63
70969;BMP280;58630;43.022;25.100;2022-12-13T04:29:52;99108.66;;;8.56
70969;BMP280;58630;43.022;25.100;2022-12-13T04:32:17;99108.44;;;8.57
70969;BMP280;58630;43.022;25.100;2022-12-13T04:34:42;99107.09;;;8.55
70969;BMP280;58630;43.022;25.100;2022-12-13T04:37:07;99102.97;;;8.54
70969;BMP280;58630;43.022;25.100;2022-12-13T04:39:33;99106.34;;;8.54
70969;BMP280;58630;43.022;25.100;2022-12-13T04:41:58;99108.94;;;8.54
70969;BMP280;58630;43.022;25.100;2022-12-13T04:44:23;99121.09;;;8.54
70969;BMP280;58630;43.022;25.100;2022-12-13T04:46:48;99116.94;;;8.53
70969;BMP280;58630;43.022;25.100;2022-12-13T04:49:14;99113.56;;;8.52
70969;BMP280;58630;43.022;25.100;2022-12-13T04:51:39;99110.94;;;8.47
70969;BMP280;58630;43.022;25.100;2022-12-13T04:54:04;99127.22;;;8.48
70969;BMP280;58630;43.022;25.100;2022-12-13T04:56:29;99127.50;;;8.46
70969;BMP280;58630;43.022;25.100;2022-12-13T04:58:55;99124.38;;;8.44
70969;BMP280;58630;43.022;25.100;2022-12-13T05:01:20;99129.50;;;8.39
70969;BMP280;58630;43.022;25.100;2022-12-13T05:03:45;99132.84;;;8.35
70969;BMP280;58630;43.022;25.100;2022-12-13T05:06:11;99135.13;;;8.31
70969;BMP280;58630;43.022;25.100;2022-12-13T05:08:37;99142.41;;;8.34
70969;BMP280;58630;43.022;25.100;2022-12-13T05:11:03;99153.78;;;8.33
70969;BMP280;58630;43.022;25.100;2022-12-13T05:13:28;99147.28;;;8.31
70969;BMP280;58630;43.022;25.100;2022-12-13T05:15:54;99158.38;;;8.26
70969;BMP280;58630;43.022;25.100;2022-12-13T05:18:20;99151.13;;;8.23
70969;BMP280;58630;43.022;25.100;2022-12-13T05:20:45;99162.00;;;8.25
70969;BMP280;58630;43.022;25.100;2022-12-13T05:23:10;99158.63;;;8.25
70969;BMP280;58630;43.022;25.100;2022-12-13T05:25:35;99155.78;;;8.26
70969;BMP280;58630;43.022;25.100;2022-12-13T05:28:01;99158.91;;;8.28
70969;BMP280;58630;43.022;25.100;2022-12-13T05:30:26;99164.31;;;8.27
70969;BMP280;58630;43.022;25.100;2022-12-13T05:32:51;99179.09;;;8.26
70969;BMP280;58630;43.022;25.100;2022-12-13T05:35:16;99189.19;;;8.28
70969;BMP280;58630;43.022;25.100;2022-12-13T05:37:42;99184.78;;;8.28
70969;BMP280;58630;43.022;25.100;2022-12-13T05:40:07;99184.78;;;8.28
70969;BMP280;58630;43.022;25.100;2022-12-13T05:42:35;99184.25;;;8.26
70969;BMP280;58630;43.022;25.100;2022-12-13T05:45:00;99179.84;;;8.27
70969;BMP280;58630;43.022;25.100;2022-12-13T05:47:25;99178.06;;;8.27
70969;BMP280;58630;43.022;25.100;2022-12-13T05:49:50;99185.03;;;8.27
70969;BMP280;58630;43.022;25.100;2022-12-13T05:52:19;99190.47;;;8.25
70969;BMP280;58630;43.022;25.100;2022-12-13T05:54:45;99181.94;;;8.25
70969;BMP280;58630;43.022;25.100;2022-12-13T05:57:10;99191.50;;;8.24
70969;BMP280;58630;43.022;25.100;2022-12-13T05:59:36;99184.78;;;8.23
70969;BMP280;58630;43.022;25.100;2022-12-13T06:02:01;99192.00;;;8.21
70969;BMP280;58630;43.022;25.100;2022-12-13T06:04:26;99190.41;;;8.20
70969;BMP280;58630;43.022;25.100;2022-12-13T06:06:51;99189.31;;;8.16
70969;BMP280;58630;43.022;25.100;2022-12-13T06:09:17;99193.22;;;8.19
70969;BMP280;58630;43.022;25.100;2022-12-13T06:11:42;99180.53;;;8.17
70969;BMP280;58630;43.022;25.100;2022-12-13T06:14:08;99177.16;;;8.17
70969;BMP280;58630;43.022;25.100;2022-12-13T06:16:33;99181.03;;;8.15
70969;BMP280;58630;43.022;25.100;2022-12-13T06:18:58;99183.34;;;8.16
70969;BMP280;58630;43.022;25.100;2022-12-13T06:21:23;99193.97;;;8.15
70969;BMP280;58630;43.022;25.100;2022-12-13T06:23:49;99190.34;;;8.15
70969;BMP280;58630;43.022;25.100;2022-12-13T06:26:14;99203.28;;;8.15
70969;BMP280;58630;43.022;25.100;2022-12-13T06:28:39;99204.56;;;8.13
70969;BMP280;58630;43.022;25.100;2022-12-13T06:31:04;99212.88;;;8.15
70969;BMP280;58630;43.022;25.100;2022-12-13T06:33:30;99210.53;;;8.14
70969;BMP280;58630;43.022;25.100;2022-12-13T06:35:59;99224.50;;;8.13
70969;BMP280;58630;43.022;25.100;2022-12-13T06:38:24;99231.22;;;8.14
70969;BMP280;58630;43.022;25.100;2022-12-13T06:40:50;99242.59;;;8.13
70969;BMP280;58630;43.022;25.100;2022-12-13T06:43:15;99228.66;;;8.14
70969;BMP280;58630;43.022;25.100;2022-12-13T06:45:40;99232.81;;;8.15
70969;BMP280;58630;43.022;25.100;2022-12-13T06:48:06;99220.88;;;8.14
70969;BMP280;58630;43.022;25.100;2022-12-13T06:50:31;99217.28;;;8.15
70969;BMP280;58630;43.022;25.100;2022-12-13T06:52:56;99218.81;;;8.15
70969;BMP280;58630;43.022;25.100;2022-12-13T06:55:21;99243.91;;;8.15
70969;BMP280;58630;43.022;25.100;2022-12-13T06:57:50;99244.69;;;8.15
70969;BMP280;58630;43.022;25.100;2022-12-13T07:00:15;99255.03;;;8.15
70969;BMP280;58630;43.022;25.100;2022-12-13T07:02:41;99248.31;;;8.15
70969;BMP280;58630;43.022;25.100;2022-12-13T07:05:06;99249.09;;;8.15
70969;BMP280;58630;43.022;25.100;2022-12-13T07:07:31;99249.09;;;8.15
70969;BMP280;58630;43.022;25.100;2022-12-13T07:09:57;99253.50;;;8.15
70969;BMP280;58630;43.022;25.100;2022-12-13T07:12:22;99261.28;;;8.15
70969;BMP280;58630;43.022;25.100;2022-12-13T07:14:47;99257.63;;;8.15
70969;BMP280;58630;43.022;25.100;2022-12-13T07:17:13;99255.03;;;8.15
70969;BMP280;58630;43.022;25.100;2022-12-13T07:19:38;99260.22;;;8.15
70969;BMP280;58630;43.022;25.100;2022-12-13T07:22:04;99261.00;;;8.16
70969;BMP280;58630;43.022;25.100;2022-12-13T07:24:29;99265.41;;;8.15
70969;BMP280;58630;43.022;25.100;2022-12-13T07:26:55;99269.03;;;8.15
70969;BMP280;58630;43.022;25.100;2022-12-13T07:29:20;99280.16;;;8.15
70969;BMP280;58630;43.022;25.100;2022-12-13T07:31:45;99286.09;;;8.15
70969;BMP280;58630;43.022;25.100;2022-12-13T07:34:10;99287.66;;;8.16
70969;BMP280;58630;43.022;25.100;2022-12-13T07:36:36;99298.78;;;8.17
70969;BMP280;58630;43.022;25.100;2022-12-13T07:39:01;99294.63;;;8.16
70969;BMP280;58630;43.022;25.100;2022-12-13T07:41:26;99303.19;;;8.16
70969;BMP280;58630;43.022;25.100;2022-12-13T07:43:52;99310.97;;;8.16
70969;BMP280;58630;43.022;25.100;2022-12-13T07:46:17;99309.13;;;8.17
70969;BMP280;58630;43.022;25.100;2022-12-13T07:48:43;99302.19;;;8.17
70969;BMP280;58630;43.022;25.100;2022-12-13T07:51:08;99302.94;;;8.18
70969;BMP280;58630;43.022;25.100;2022-12-13T07:53:38;99303.97;;;8.17
70969;BMP280;58630;43.022;25.100;2022-12-13T07:56:04;99300.34;;;8.18
70969;BMP280;58630;43.022;25.100;2022-12-13T07:58:30;99304.50;;;8.19
70969;BMP280;58630;43.022;25.100;2022-12-13T08:01:01;99310.50;;;8.19
70969;BMP280;58630;43.022;25.100;2022-12-13T08:03:27;99314.66;;;8.20
70969;BMP280;58630;43.022;25.100;2022-12-13T08:05:59;99318.81;;;8.21
70969;BMP280;58630;43.022;25.100;2022-12-13T08:08:25;99331.75;;;8.21
70969;BMP280;58630;43.022;25.100;2022-12-13T08:10:50;99331.75;;;8.21
70969;BMP280;58630;43.022;25.100;2022-12-13T08:13:15;99341.06;;;8.22
70969;BMP280;58630;43.022;25.100;2022-12-13T08:15:41;99343.41;;;8.24
70969;BMP280;58630;43.022;25.100;2022-12-13T08:18:06;99340.81;;;8.24
70969;BMP280;58630;43.022;25.100;2022-12-13T08:20:31;99334.88;;;8.23
70969;BMP280;58630;43.022;25.100;2022-12-13T08:22:57;99332.28;;;8.23
70969;BMP280;58630;43.022;25.100;2022-12-13T08:25:23;99335.66;;;8.24
70969;BMP280;58630;43.022;25.100;2022-12-13T08:27:48;99336.44;;;8.24
70969;BMP280;58630;43.022;25.100;2022-12-13T08:30:14;99338.75;;;8.26
70969;BMP280;58630;43.022;25.100;2022-12-13T08:32:40;99337.75;;;8.27
70969;BMP280;58630;43.022;25.100;2022-12-13T08:35:05;99331.53;;;8.28
70969;BMP280;58630;43.022;25.100;2022-12-13T08:37:31;99330.78;;;8.27
70969;BMP280;58630;43.022;25.100;2022-12-13T08:39:56;99338.28;;;8.29
70969;BMP280;58630;43.022;25.100;2022-12-13T08:42:21;99327.94;;;8.29
70969;BMP280;58630;43.022;25.100;2022-12-13T08:44:49;99332.31;;;8.28
70969;BMP280;58630;43.022;25.100;2022-12-13T08:47:14;99328.72;;;8.29
70969;BMP280;58630;43.022;25.100;2022-12-13T08:49:40;99319.16;;;8.30
70969;BMP280;58630;43.022;25.100;2022-12-13T08:52:05;99316.56;;;8.30
70969;BMP280;58630;43.022;25.100;2022-12-13T08:54:34;99319.16;;;8.30
70969;BMP280;58630;43.022;25.100;2022-12-13T08:56:59;99314.75;;;8.30
70969;BMP280;58630;43.022;25.100;2022-12-13T08:59:24;99324.88;;;8.32
70969;BMP280;58630;43.022;25.100;2022-12-13T09:01:50;99323.06;;;8.32
70969;BMP280;58630;43.022;25.100;2022-12-13T09:04:16;99323.06;;;8.32
70969;BMP280;58630;43.022;25.100;2022-12-13T09:06:41;99324.41;;;8.35
70969;BMP280;58630;43.022;25.100;2022-12-13T09:09:07;99324.63;;;8.33
70969;BMP280;58630;43.022;25.100;2022-12-13T09:11:32;99315.84;;;8.34
70969;BMP280;58630;43.022;25.100;2022-12-13T09:13:58;99318.44;;;8.34
70969;BMP280;58630;43.022;25.100;2022-12-13T09:16:23;99303.16;;;8.33
70969;BMP280;58630;43.022;25.100;2022-12-13T09:18:51;99308.34;;;8.33
70969;BMP280;58630;43.022;25.100;2022-12-13T09:21:17;99309.91;;;8.34
70969;BMP280;58630;43.022;25.100;2022-12-13T09:23:43;99291.78;;;8.34
70969;BMP280;58630;43.022;25.100;2022-12-13T09:26:12;99280.41;;;8.35
70969;BMP280;58630;43.022;25.100;2022-12-13T09:28:38;99275.22;;;8.35
70969;BMP280;58630;43.022;25.100;2022-12-13T09:31:07;99273.16;;;8.37
70969;BMP280;58630;43.022;25.100;2022-12-13T09:33:32;99279.09;;;8.37
70969;BMP280;58630;43.022;25.100;2022-12-13T09:35:57;99269.53;;;8.38
70969;BMP280;58630;43.022;25.100;2022-12-13T09:38:23;99268.53;;;8.39
70969;BMP280;58630;43.022;25.100;2022-12-13T09:40:49;99272.91;;;8.38
70969;BMP280;58630;43.022;25.100;2022-12-13T09:43:21;99266.72;;;8.39
70969;BMP280;58630;43.022;25.100;2022-12-13T09:45:48;99257.16;;;8.40
70969;BMP280;58630;43.022;25.100;2022-12-13T09:48:17;99246.78;;;8.40
70969;BMP280;58630;43.022;25.100;2022-12-13T09:50:44;99250.69;;;8.42
70969;BMP280;58630;43.022;25.100;2022-12-13T09:53:10;99243.94;;;8.41
70969;BMP280;58630;43.022;25.100;2022-12-13T09:55:37;99240.34;;;8.42
70969;BMP280;58630;43.022;25.100;2022-12-13T09:58:07;99243.72;;;8.43
70969;BMP280;58630;43.022;25.100;2022-12-13T10:00:35;99223.78;;;8.43
70969;BMP280;58630;43.022;25.100;2022-12-13T10:03:01;99223.78;;;8.43
70969;BMP280;58630;43.022;25.100;2022-12-13T10:05:27;99221.19;;;8.43
70969;BMP280;58630;43.022;25.100;2022-12-13T10:07:54;99221.97;;;8.44
70969;BMP280;58630;43.022;25.100;2022-12-13T10:10:20;99202.81;;;8.45
70969;BMP280;58630;43.022;25.100;2022-12-13T10:12:46;99199.97;;;8.46
70969;BMP280;58630;43.022;25.100;2022-12-13T10:15:14;99206.19;;;8.45
70969;BMP280;58630;43.022;25.100;2022-12-13T10:17:41;99191.69;;;8.44
70969;BMP280;58630;43.022;25.100;2022-12-13T10:20:15;99189.63;;;8.46
70969;BMP280;58630;43.022;25.100;2022-12-13T10:22:42;99195.56;;;8.47
70969;BMP280;58630;43.022;25.100;2022-12-13T10:25:07;99188.06;;;8.45
70969;BMP280;58630;43.022;25.100;2022-12-13T10:30:07;99188.81;;;8.46
70969;BMP280;58630;43.022;25.100;2022-12-13T10:35:30;99179.25;;;8.46
70969;BMP280;58630;43.022;25.100;2022-12-13T10:37:58;99178.47;;;8.46
70969;BMP280;58630;43.022;25.100;2022-12-13T10:40:24;99188.06;;;8.45
70969;BMP280;58630;43.022;25.100;2022-12-13T10:45:40;99179.25;;;8.46
70969;BMP280;58630;43.022;25.100;2022-12-13T10:48:09;99176.69;;;8.46
70969;BMP280;58630;43.022;25.100;2022-12-13T10:50:41;99188.59;;;8.47
70969;BMP280;58630;43.022;25.100;2022-12-13T10:53:13;99186.00;;;8.47
70969;BMP280;58630;43.022;25.100;2022-12-13T10:55:41;99182.16;;;8.50
70969;BMP280;58630;43.022;25.100;2022-12-13T10:58:06;99176.75;;;8.51
70969;BMP280;58630;43.022;25.100;2022-12-13T11:02:58;99173.41;;;8.56
70969;BMP280;58630;43.022;25.100;2022-12-13T11:05:25;99179.38;;;8.56
70969;BMP280;58630;43.022;25.100;2022-12-13T11:07:51;99174.72;;;8.58
70969;BMP280;58630;43.022;25.100;2022-12-13T11:12:41;99161.28;;;8.61
70969;BMP280;58630;43.022;25.100;2022-12-13T11:15:07;99155.63;;;8.64
70969;BMP280;58630;43.022;25.100;2022-12-13T11:17:45;99166.25;;;8.68
70969;BMP280;58630;43.022;25.100;2022-12-13T11:20:14;99166.31;;;8.73
70969;BMP280;58630;43.022;25.100;2022-12-13T11:22:41;99160.59;;;8.76
70969;BMP280;58630;43.022;25.100;2022-12-13T11:25:08;99147.97;;;8.79
70969;BMP280;58630;43.022;25.100;2022-12-13T11:30:21;99143.34;;;8.86
70969;BMP280;58630;43.022;25.100;2022-12-13T11:37:48;99145.50;;;8.99
70969;BMP280;58630;43.022;25.100;2022-12-13T11:40:40;99148.91;;;9.04
70969;BMP280;58630;43.022;25.100;2022-12-13T11:45:46;99136.78;;;9.15
70969;BMP280;58630;43.022;25.100;2022-12-13T11:48:22;99135.25;;;9.24
70969;BMP280;58630;43.022;25.100;2022-12-13T11:50:49;99138.75;;;9.44
70969;BMP280;58630;43.022;25.100;2022-12-13T11:58:24;99126.72;;;10.24
70969;BMP280;58630;43.022;25.100;2022-12-13T12:01:06;99126.50;;;12.25
70969;BMP280;58630;43.022;25.100;2022-12-13T12:06:01;99121.75;;;11.98
70969;BMP280;58630;43.022;25.100;2022-12-13T12:11:01;99137.81;;;12.10
70969;BMP280;58630;43.022;25.100;2022-12-13T12:13:39;99135.50;;;14.22
70969;BMP280;58630;43.022;25.100;2022-12-13T12:18:38;99122.03;;;13.83
70969;BMP280;58630;43.022;25.100;2022-12-13T12:23:52;99120.28;;;13.79
70969;BMP280;58630;43.022;25.100;2022-12-13T12:26:22;99123.63;;;15.59
70969;BMP280;58630;43.022;25.100;2022-12-13T12:44:15;99111.88;;;13.64
70969;BMP280;58630;43.022;25.100;2022-12-13T12:54:55;99113.88;;;12.88
70969;BMP280;58630;43.022;25.100;2022-12-13T13:03:19;99127.28;;;12.53
70969;BMP280;58630;43.022;25.100;2022-12-13T13:08:44;99135.41;;;12.19
70969;BMP280;58630;43.022;25.100;2022-12-13T13:11:11;99137.84;;;12.05
70969;BMP280;58630;43.022;25.100;2022-12-13T13:16:03;99138.00;;;11.85
70969;BMP280;58630;43.022;25.100;2022-12-13T13:18:41;99134.13;;;11.78
70969;BMP280;58630;43.022;25.100;2022-12-13T13:21:24;99134.94;;;11.69
70969;BMP280;58630;43.022;25.100;2022-12-13T13:26:31;99149.09;;;11.58
70969;BMP280;58630;43.022;25.100;2022-12-13T13:34:25;99147.06;;;11.45
70969;BMP280;58630;43.022;25.100;2022-12-13T13:36:53;99143.69;;;11.39
70969;BMP280;58630;43.022;25.100;2022-12-13T13:44:33;99142.97;;;11.24
70969;BMP280;58630;43.022;25.100;2022-12-13T13:49:37;99147.97;;;11.10
70969;BMP280;58630;43.022;25.100;2022-12-13T14:00:07;99165.66;;;10.94
70969;BMP280;58630;43.022;25.100;2022-12-13T14:08:19;99167.78;;;10.82
70969;BMP280;58630;43.022;25.100;2022-12-13T14:13:36;99183.91;;;10.74
70969;BMP280;58630;43.022;25.100;2022-12-13T14:16:14;99188.06;;;10.70
70969;BMP280;58630;43.022;25.100;2022-12-13T14:26:42;99209.34;;;10.57
70969;BMP280;58630;43.022;25.100;2022-12-13T14:29:12;99221.78;;;10.55
70969;BMP280;58630;43.022;25.100;2022-12-13T14:31:40;99220.75;;;10.51
70969;BMP280;58630;43.022;25.100;2022-12-13T14:34:06;99230.13;;;10.47
70969;BMP280;58630;43.022;25.100;2022-12-13T14:36:32;99223.91;;;10.43
70969;BMP280;58630;43.022;25.100;2022-12-13T14:39:00;99229.81;;;10.38
70969;BMP280;58630;43.022;25.100;2022-12-13T14:41:26;99231.16;;;10.36
70969;BMP280;58630;43.022;25.100;2022-12-13T14:43:51;99234.50;;;10.32
70969;BMP280;58630;43.022;25.100;2022-12-13T14:46:17;99233.72;;;10.31
70969;BMP280;58630;43.022;25.100;2022-12-13T14:48:47;99226.44;;;10.28
70969;BMP280;58630;43.022;25.100;2022-12-13T14:51:32;99231.38;;;10.25
70969;BMP280;58630;43.022;25.100;2022-12-13T14:53:58;99232.13;;;10.20
70969;BMP280;58630;43.022;25.100;2022-12-13T14:56:24;99240.19;;;10.19
70969;BMP280;58630;43.022;25.100;2022-12-13T14:58:54;99238.91;;;10.16
70969;BMP280;58630;43.022;25.100;2022-12-13T15:01:24;99240.19;;;10.14
70969;BMP280;58630;43.022;25.100;2022-12-13T15:03:49;99230.31;;;10.11
70969;BMP280;58630;43.022;25.100;2022-12-13T15:06:15;99230.03;;;10.07
70969;BMP280;58630;43.022;25.100;2022-12-13T15:08:42;99230.28;;;10.06
70969;BMP280;58630;43.022;25.100;2022-12-13T15:11:08;99226.41;;;10.03
70969;BMP280;58630;43.022;25.100;2022-12-13T15:13:35;99226.91;;;10.00
70969;BMP280;58630;43.022;25.100;2022-12-13T15:16:02;99219.63;;;9.97
70969;BMP280;58630;43.022;25.100;2022-12-13T15:18:29;99213.13;;;9.95
70969;BMP280;58630;43.022;25.100;2022-12-13T15:20:56;99226.34;;;9.93
70969;BMP280;58630;43.022;25.100;2022-12-13T15:25:47;99221.94;;;9.89
70969;BMP280;58630;43.022;25.100;2022-12-13T15:28:14;99231.03;;;9.86
70969;BMP280;58630;43.022;25.100;2022-12-13T15:30:39;99233.09;;;9.84
70969;BMP280;58630;43.022;25.100;2022-12-13T15:33:06;99235.91;;;9.83
70969;BMP280;58630;43.022;25.100;2022-12-13T15:35:32;99238.75;;;9.81
70969;BMP280;58630;43.022;25.100;2022-12-13T15:37:58;99244.22;;;9.80
70969;BMP280;58630;43.022;25.100;2022-12-13T15:40:23;99246.28;;;9.78
70969;BMP280;58630;43.022;25.100;2022-12-13T15:42:49;99235.13;;;9.77
70969;BMP280;58630;43.022;25.100;2022-12-13T15:45:22;99232.75;;;9.76
70969;BMP280;58630;43.022;25.100;2022-12-13T15:47:48;99224.44;;;9.74
70969;BMP280;58630;43.022;25.100;2022-12-13T15:52:59;99234.56;;;9.70
70969;BMP280;58630;43.022;25.100;2022-12-13T15:55:26;99232.75;;;9.71
70969;BMP280;58630;43.022;25.100;2022-12-13T15:57:56;99247.53;;;9.70
70969;BMP280;58630;43.022;25.100;2022-12-13T16:05:33;99247.00;;;9.68
70969;BMP280;58630;43.022;25.100;2022-12-13T16:08:00;99246.47;;;9.66
70969;BMP280;58630;43.022;25.100;2022-12-13T16:10:26;99256.63;;;9.68
70969;BMP280;58630;43.022;25.100;2022-12-13T16:12:54;99248.28;;;9.66
70969;BMP280;58630;43.022;25.100;2022-12-13T16:15:27;99256.31;;;9.64
70969;BMP280;58630;43.022;25.100;2022-12-13T16:17:54;99256.81;;;9.62
70969;BMP280;58630;43.022;25.100;2022-12-13T16:20:21;99262.81;;;9.62
70969;BMP280;58630;43.022;25.100;2022-12-13T16:22:46;99258.41;;;9.63
70969;BMP280;58630;43.022;25.100;2022-12-13T16:25:13;99264.88;;;9.60
70969;BMP280;58630;43.022;25.100;2022-12-13T16:27:39;99263.31;;;9.59
70969;BMP280;58630;43.022;25.100;2022-12-13T16:30:14;99272.34;;;9.57
70969;BMP280;58630;43.022;25.100;2022-12-13T16:32:46;99281.44;;;9.54
70969;BMP280;58630;43.022;25.100;2022-12-13T16:35:11;99279.09;;;9.53